METAR Formatted Surface Weather Observation
Issued by NWS

Home | Current Version | Previous Version | Text Only | Print | Product List | Glossary On
Versions: 1 2 3 4 5 6 7
000
SAUS46 KSEW 281303
MTRSMP
METAR KSMP 281256Z AUTO 23004KT 10SM CLR 16/11 A3022 RMK AO2 SLP204
T01560111 $



USA.gov is the U.S. government's official web portal to all federal, state and local government web resources and services.